sensor_id;sensor_type;location;lat;lon;timestamp;P1;durP1;ratioP1;P2;durP2;ratioP2
61635;SDS011;59438;45.014;39.006;2023-01-23T00:00:04;34.78;;;12.10;;
61635;SDS011;59438;45.014;39.006;2023-01-23T00:02:32;30.58;;;11.85;;
61635;SDS011;59438;45.014;39.006;2023-01-23T00:04:58;36.17;;;13.45;;
61635;SDS011;59438;45.014;39.006;2023-01-23T00:07:25;35.28;;;12.25;;
61635;SDS011;59438;45.014;39.006;2023-01-23T00:09:51;37.50;;;12.25;;
61635;SDS011;59438;45.014;39.006;2023-01-23T00:12:18;31.73;;;12.82;;
61635;SDS011;59438;45.014;39.006;2023-01-23T00:14:44;38.35;;;13.35;;
61635;SDS011;59438;45.014;39.006;2023-01-23T00:17:12;35.50;;;12.75;;
61635;SDS011;59438;45.014;39.006;2023-01-23T00:19:38;40.72;;;13.88;;
61635;SDS011;59438;45.014;39.006;2023-01-23T00:22:05;36.95;;;13.25;;
61635;SDS011;59438;45.014;39.006;2023-01-23T00:24:31;34.05;;;13.35;;
61635;SDS011;59438;45.014;39.006;2023-01-23T00:26:57;32.72;;;12.45;;
61635;SDS011;59438;45.014;39.006;2023-01-23T00:29:24;39.65;;;13.35;;
61635;SDS011;59438;45.014;39.006;2023-01-23T00:31:50;36.85;;;13.52;;
61635;SDS011;59438;45.014;39.006;2023-01-23T00:34:18;39.00;;;13.38;;
61635;SDS011;59438;45.014;39.006;2023-01-23T00:36:44;31.70;;;12.77;;
61635;SDS011;59438;45.014;39.006;2023-01-23T00:39:12;35.78;;;13.48;;
61635;SDS011;59438;45.014;39.006;2023-01-23T00:41:41;44.38;;;14.73;;
61635;SDS011;59438;45.014;39.006;2023-01-23T00:44:07;35.85;;;13.57;;
61635;SDS011;59438;45.014;39.006;2023-01-23T00:46:34;36.25;;;13.85;;
61635;SDS011;59438;45.014;39.006;2023-01-23T00:49:00;39.97;;;13.13;;
61635;SDS011;59438;45.014;39.006;2023-01-23T00:51:28;40.10;;;14.32;;
61635;SDS011;59438;45.014;39.006;2023-01-23T00:53:54;31.25;;;12.13;;
61635;SDS011;59438;45.014;39.006;2023-01-23T00:56:21;33.00;;;11.07;;
61635;SDS011;59438;45.014;39.006;2023-01-23T00:58:47;36.55;;;13.30;;
61635;SDS011;59438;45.014;39.006;2023-01-23T01:01:14;31.15;;;12.05;;
61635;SDS011;59438;45.014;39.006;2023-01-23T01:03:41;39.55;;;12.07;;
61635;SDS011;59438;45.014;39.006;2023-01-23T01:06:08;18.08;;;7.32;;
61635;SDS011;59438;45.014;39.006;2023-01-23T01:08:37;37.58;;;13.13;;
61635;SDS011;59438;45.014;39.006;2023-01-23T01:11:03;33.45;;;11.98;;
61635;SDS011;59438;45.014;39.006;2023-01-23T01:13:30;37.15;;;13.10;;
61635;SDS011;59438;45.014;39.006;2023-01-23T01:15:56;37.15;;;11.82;;
61635;SDS011;59438;45.014;39.006;2023-01-23T01:18:23;33.45;;;11.35;;
61635;SDS011;59438;45.014;39.006;2023-01-23T01:20:49;37.92;;;11.60;;
61635;SDS011;59438;45.014;39.006;2023-01-23T01:23:16;31.20;;;10.85;;
61635;SDS011;59438;45.014;39.006;2023-01-23T01:25:44;32.40;;;11.77;;
61635;SDS011;59438;45.014;39.006;2023-01-23T01:28:10;29.65;;;10.98;;
61635;SDS011;59438;45.014;39.006;2023-01-23T01:30:37;32.20;;;11.68;;
61635;SDS011;59438;45.014;39.006;2023-01-23T01:33:04;34.55;;;11.02;;
61635;SDS011;59438;45.014;39.006;2023-01-23T01:35:30;29.70;;;10.93;;
61635;SDS011;59438;45.014;39.006;2023-01-23T01:37:57;28.42;;;10.85;;
61635;SDS011;59438;45.014;39.006;2023-01-23T01:40:25;37.88;;;11.30;;
61635;SDS011;59438;45.014;39.006;2023-01-23T01:42:57;33.80;;;12.55;;
61635;SDS011;59438;45.014;39.006;2023-01-23T01:48:41;31.27;;;10.55;;
61635;SDS011;59438;45.014;39.006;2023-01-23T01:51:12;26.70;;;9.70;;
61635;SDS011;59438;45.014;39.006;2023-01-23T01:53:44;36.97;;;11.20;;
61635;SDS011;59438;45.014;39.006;2023-01-23T01:56:14;28.05;;;11.30;;
61635;SDS011;59438;45.014;39.006;2023-01-23T01:58:44;29.10;;;10.65;;
61635;SDS011;59438;45.014;39.006;2023-01-23T02:01:13;32.50;;;10.88;;
61635;SDS011;59438;45.014;39.006;2023-01-23T02:03:40;33.35;;;10.57;;
61635;SDS011;59438;45.014;39.006;2023-01-23T02:06:08;29.42;;;10.48;;
61635;SDS011;59438;45.014;39.006;2023-01-23T02:08:35;32.47;;;9.93;;
61635;SDS011;59438;45.014;39.006;2023-01-23T02:11:06;32.35;;;10.00;;
61635;SDS011;59438;45.014;39.006;2023-01-23T02:13:33;32.70;;;10.80;;
61635;SDS011;59438;45.014;39.006;2023-01-23T02:16:03;28.85;;;9.10;;
61635;SDS011;59438;45.014;39.006;2023-01-23T02:18:31;28.83;;;9.90;;
61635;SDS011;59438;45.014;39.006;2023-01-23T02:21:02;33.42;;;10.93;;
61635;SDS011;59438;45.014;39.006;2023-01-23T02:23:36;39.40;;;8.73;;
61635;SDS011;59438;45.014;39.006;2023-01-23T02:26:15;28.73;;;9.45;;
61635;SDS011;59438;45.014;39.006;2023-01-23T02:28:44;31.13;;;9.57;;
61635;SDS011;59438;45.014;39.006;2023-01-23T02:31:12;32.35;;;9.45;;
61635;SDS011;59438;45.014;39.006;2023-01-23T02:33:42;32.03;;;9.63;;
61635;SDS011;59438;45.014;39.006;2023-01-23T02:36:15;30.38;;;9.40;;
61635;SDS011;59438;45.014;39.006;2023-01-23T02:38:44;30.60;;;9.18;;
61635;SDS011;59438;45.014;39.006;2023-01-23T02:41:19;35.15;;;9.80;;
61635;SDS011;59438;45.014;39.006;2023-01-23T02:43:50;28.15;;;10.32;;
61635;SDS011;59438;45.014;39.006;2023-01-23T02:46:18;28.63;;;10.02;;
61635;SDS011;59438;45.014;39.006;2023-01-23T02:48:45;29.73;;;10.13;;
61635;SDS011;59438;45.014;39.006;2023-01-23T02:51:11;23.83;;;9.52;;
61635;SDS011;59438;45.014;39.006;2023-01-23T02:53:37;32.70;;;10.32;;
61635;SDS011;59438;45.014;39.006;2023-01-23T02:56:04;36.67;;;11.32;;
61635;SDS011;59438;45.014;39.006;2023-01-23T02:58:32;30.67;;;10.13;;
61635;SDS011;59438;45.014;39.006;2023-01-23T03:00:58;32.00;;;10.10;;
61635;SDS011;59438;45.014;39.006;2023-01-23T03:03:25;25.40;;;10.30;;
61635;SDS011;59438;45.014;39.006;2023-01-23T03:05:54;33.05;;;9.93;;
61635;SDS011;59438;45.014;39.006;2023-01-23T03:08:20;37.50;;;9.35;;
61635;SDS011;59438;45.014;39.006;2023-01-23T03:10:46;34.97;;;9.25;;
61635;SDS011;59438;45.014;39.006;2023-01-23T03:13:13;34.95;;;9.20;;
61635;SDS011;59438;45.014;39.006;2023-01-23T03:15:41;19.40;;;7.63;;
61635;SDS011;59438;45.014;39.006;2023-01-23T03:18:07;23.38;;;8.65;;
61635;SDS011;59438;45.014;39.006;2023-01-23T03:20:36;28.48;;;9.75;;
61635;SDS011;59438;45.014;39.006;2023-01-23T03:23:03;23.77;;;9.23;;
61635;SDS011;59438;45.014;39.006;2023-01-23T03:25:29;29.58;;;9.48;;
61635;SDS011;59438;45.014;39.006;2023-01-23T03:27:55;38.72;;;10.25;;
61635;SDS011;59438;45.014;39.006;2023-01-23T03:30:22;31.08;;;8.05;;
61635;SDS011;59438;45.014;39.006;2023-01-23T03:32:50;31.20;;;8.68;;
61635;SDS011;59438;45.014;39.006;2023-01-23T03:35:16;21.63;;;8.45;;
61635;SDS011;59438;45.014;39.006;2023-01-23T03:37:43;27.77;;;8.40;;
61635;SDS011;59438;45.014;39.006;2023-01-23T03:40:13;21.88;;;7.80;;
61635;SDS011;59438;45.014;39.006;2023-01-23T03:42:41;21.15;;;6.45;;
61635;SDS011;59438;45.014;39.006;2023-01-23T03:45:08;22.98;;;8.68;;
61635;SDS011;59438;45.014;39.006;2023-01-23T03:47:34;21.67;;;7.75;;
61635;SDS011;59438;45.014;39.006;2023-01-23T03:50:02;23.15;;;8.98;;
61635;SDS011;59438;45.014;39.006;2023-01-23T03:52:29;28.33;;;8.18;;
61635;SDS011;59438;45.014;39.006;2023-01-23T03:54:55;28.80;;;7.95;;
61635;SDS011;59438;45.014;39.006;2023-01-23T03:57:21;28.63;;;8.55;;
61635;SDS011;59438;45.014;39.006;2023-01-23T03:59:48;23.73;;;7.53;;
61635;SDS011;59438;45.014;39.006;2023-01-23T04:02:14;29.15;;;7.88;;
61635;SDS011;59438;45.014;39.006;2023-01-23T04:04:40;23.52;;;8.35;;
61635;SDS011;59438;45.014;39.006;2023-01-23T04:07:08;18.63;;;7.30;;
61635;SDS011;59438;45.014;39.006;2023-01-23T04:09:35;29.23;;;8.77;;
61635;SDS011;59438;45.014;39.006;2023-01-23T04:12:01;20.73;;;7.60;;
61635;SDS011;59438;45.014;39.006;2023-01-23T04:14:28;20.65;;;6.78;;
61635;SDS011;59438;45.014;39.006;2023-01-23T04:16:55;21.17;;;7.05;;
61635;SDS011;59438;45.014;39.006;2023-01-23T04:19:21;25.65;;;7.93;;
61635;SDS011;59438;45.014;39.006;2023-01-23T04:21:48;28.05;;;8.57;;
61635;SDS011;59438;45.014;39.006;2023-01-23T04:24:16;26.75;;;8.65;;
61635;SDS011;59438;45.014;39.006;2023-01-23T04:26:42;25.88;;;7.80;;
61635;SDS011;59438;45.014;39.006;2023-01-23T04:29:09;29.17;;;8.30;;
61635;SDS011;59438;45.014;39.006;2023-01-23T04:31:35;14.77;;;6.57;;
61635;SDS011;59438;45.014;39.006;2023-01-23T04:34:01;27.48;;;8.55;;
61635;SDS011;59438;45.014;39.006;2023-01-23T04:36:28;20.83;;;6.72;;
61635;SDS011;59438;45.014;39.006;2023-01-23T04:38:54;14.88;;;7.25;;
61635;SDS011;59438;45.014;39.006;2023-01-23T04:41:23;21.27;;;7.68;;
61635;SDS011;59438;45.014;39.006;2023-01-23T04:46:17;21.08;;;7.85;;
61635;SDS011;59438;45.014;39.006;2023-01-23T04:48:44;20.70;;;7.60;;
61635;SDS011;59438;45.014;39.006;2023-01-23T04:51:10;21.98;;;8.50;;
61635;SDS011;59438;45.014;39.006;2023-01-23T04:53:36;26.17;;;7.82;;
61635;SDS011;59438;45.014;39.006;2023-01-23T04:56:03;21.00;;;8.23;;
61635;SDS011;59438;45.014;39.006;2023-01-23T04:58:31;19.50;;;8.40;;
61635;SDS011;59438;45.014;39.006;2023-01-23T05:01:00;26.65;;;8.45;;
61635;SDS011;59438;45.014;39.006;2023-01-23T05:03:27;27.40;;;8.10;;
61635;SDS011;59438;45.014;39.006;2023-01-23T05:05:53;27.10;;;8.55;;
61635;SDS011;59438;45.014;39.006;2023-01-23T05:08:19;24.38;;;9.48;;
61635;SDS011;59438;45.014;39.006;2023-01-23T05:10:46;19.35;;;7.75;;
61635;SDS011;59438;45.014;39.006;2023-01-23T05:13:12;26.52;;;7.80;;
61635;SDS011;59438;45.014;39.006;2023-01-23T05:15:40;26.30;;;8.70;;
61635;SDS011;59438;45.014;39.006;2023-01-23T05:18:06;22.27;;;7.75;;
61635;SDS011;59438;45.014;39.006;2023-01-23T05:20:32;26.23;;;8.73;;
61635;SDS011;59438;45.014;39.006;2023-01-23T05:22:59;26.23;;;9.38;;
61635;SDS011;59438;45.014;39.006;2023-01-23T05:25:25;26.63;;;8.65;;
61635;SDS011;59438;45.014;39.006;2023-01-23T05:27:53;17.05;;;7.00;;
61635;SDS011;59438;45.014;39.006;2023-01-23T05:30:20;21.00;;;6.95;;
61635;SDS011;59438;45.014;39.006;2023-01-23T05:32:49;20.67;;;7.80;;
61635;SDS011;59438;45.014;39.006;2023-01-23T05:35:16;24.90;;;8.00;;
61635;SDS011;59438;45.014;39.006;2023-01-23T05:37:42;16.17;;;7.25;;
61635;SDS011;59438;45.014;39.006;2023-01-23T05:40:12;21.45;;;8.10;;
61635;SDS011;59438;45.014;39.006;2023-01-23T05:42:39;20.88;;;8.48;;
61635;SDS011;59438;45.014;39.006;2023-01-23T05:45:05;27.05;;;8.40;;
61635;SDS011;59438;45.014;39.006;2023-01-23T05:47:32;23.33;;;8.55;;
61635;SDS011;59438;45.014;39.006;2023-01-23T05:50:00;20.58;;;8.55;;
61635;SDS011;59438;45.014;39.006;2023-01-23T05:52:27;22.08;;;8.77;;
61635;SDS011;59438;45.014;39.006;2023-01-23T05:54:53;21.13;;;8.48;;
61635;SDS011;59438;45.014;39.006;2023-01-23T05:57:19;26.42;;;8.20;;
61635;SDS011;59438;45.014;39.006;2023-01-23T05:59:46;20.80;;;7.78;;
61635;SDS011;59438;45.014;39.006;2023-01-23T06:02:12;25.63;;;8.35;;
61635;SDS011;59438;45.014;39.006;2023-01-23T06:04:39;21.25;;;8.25;;
61635;SDS011;59438;45.014;39.006;2023-01-23T06:07:08;21.05;;;8.18;;
61635;SDS011;59438;45.014;39.006;2023-01-23T06:09:38;16.10;;;7.75;;
61635;SDS011;59438;45.014;39.006;2023-01-23T06:12:05;24.52;;;8.35;;
61635;SDS011;59438;45.014;39.006;2023-01-23T06:14:32;18.27;;;7.97;;
61635;SDS011;59438;45.014;39.006;2023-01-23T06:16:58;22.88;;;8.85;;
61635;SDS011;59438;45.014;39.006;2023-01-23T06:19:25;23.02;;;8.98;;
61635;SDS011;59438;45.014;39.006;2023-01-23T06:21:51;18.73;;;8.02;;
61635;SDS011;59438;45.014;39.006;2023-01-23T06:24:19;20.13;;;9.10;;
61635;SDS011;59438;45.014;39.006;2023-01-23T06:26:45;19.35;;;8.38;;
61635;SDS011;59438;45.014;39.006;2023-01-23T06:29:12;27.17;;;10.15;;
61635;SDS011;59438;45.014;39.006;2023-01-23T06:31:38;21.67;;;9.85;;
61635;SDS011;59438;45.014;39.006;2023-01-23T06:34:05;24.95;;;10.20;;
61635;SDS011;59438;45.014;39.006;2023-01-23T06:36:31;24.00;;;9.25;;
61635;SDS011;59438;45.014;39.006;2023-01-23T06:38:58;25.23;;;9.07;;
61635;SDS011;59438;45.014;39.006;2023-01-23T06:41:29;24.25;;;8.77;;
61635;SDS011;59438;45.014;39.006;2023-01-23T06:43:55;21.45;;;7.82;;
61635;SDS011;59438;45.014;39.006;2023-01-23T06:46:22;31.30;;;8.98;;
61635;SDS011;59438;45.014;39.006;2023-01-23T06:48:48;20.15;;;7.85;;
61635;SDS011;59438;45.014;39.006;2023-01-23T06:51:16;27.38;;;9.85;;
61635;SDS011;59438;45.014;39.006;2023-01-23T06:53:43;23.15;;;8.32;;
61635;SDS011;59438;45.014;39.006;2023-01-23T06:56:09;22.38;;;8.38;;
61635;SDS011;59438;45.014;39.006;2023-01-23T06:58:38;25.42;;;9.60;;
61635;SDS011;59438;45.014;39.006;2023-01-23T07:01:08;22.38;;;9.00;;
61635;SDS011;59438;45.014;39.006;2023-01-23T07:03:34;19.63;;;7.83;;
61635;SDS011;59438;45.014;39.006;2023-01-23T07:06:01;20.08;;;7.15;;
61635;SDS011;59438;45.014;39.006;2023-01-23T07:08:28;19.25;;;8.10;;
61635;SDS011;59438;45.014;39.006;2023-01-23T07:10:54;17.27;;;8.00;;
61635;SDS011;59438;45.014;39.006;2023-01-23T07:13:20;28.45;;;8.35;;
61635;SDS011;59438;45.014;39.006;2023-01-23T07:15:48;22.65;;;7.95;;
61635;SDS011;59438;45.014;39.006;2023-01-23T07:18:14;23.95;;;8.68;;
61635;SDS011;59438;45.014;39.006;2023-01-23T07:20:42;20.88;;;8.98;;
61635;SDS011;59438;45.014;39.006;2023-01-23T07:23:09;19.63;;;8.77;;
61635;SDS011;59438;45.014;39.006;2023-01-23T07:25:35;22.60;;;8.88;;
61635;SDS011;59438;45.014;39.006;2023-01-23T07:28:02;17.55;;;8.80;;
61635;SDS011;59438;45.014;39.006;2023-01-23T07:30:28;28.13;;;9.65;;
61635;SDS011;59438;45.014;39.006;2023-01-23T07:32:56;17.15;;;8.95;;
61635;SDS011;59438;45.014;39.006;2023-01-23T07:35:22;22.73;;;8.93;;
61635;SDS011;59438;45.014;39.006;2023-01-23T07:37:49;18.27;;;8.05;;
61635;SDS011;59438;45.014;39.006;2023-01-23T07:40:16;20.98;;;8.63;;
61635;SDS011;59438;45.014;39.006;2023-01-23T07:42:43;19.60;;;8.05;;
61635;SDS011;59438;45.014;39.006;2023-01-23T07:45:09;21.35;;;8.48;;
61635;SDS011;59438;45.014;39.006;2023-01-23T07:47:36;22.45;;;7.90;;
61635;SDS011;59438;45.014;39.006;2023-01-23T07:50:05;24.27;;;9.55;;
61635;SDS011;59438;45.014;39.006;2023-01-23T07:52:32;23.92;;;8.40;;
61635;SDS011;59438;45.014;39.006;2023-01-23T07:54:58;15.73;;;7.72;;
61635;SDS011;59438;45.014;39.006;2023-01-23T07:57:25;22.00;;;8.65;;
61635;SDS011;59438;45.014;39.006;2023-01-23T07:59:51;25.60;;;8.95;;
61635;SDS011;59438;45.014;39.006;2023-01-23T08:02:17;18.60;;;8.30;;
61635;SDS011;59438;45.014;39.006;2023-01-23T08:04:44;22.02;;;8.55;;
61635;SDS011;59438;45.014;39.006;2023-01-23T08:07:12;17.83;;;8.73;;
61635;SDS011;59438;45.014;39.006;2023-01-23T08:09:38;22.25;;;8.25;;
61635;SDS011;59438;45.014;39.006;2023-01-23T08:12:04;19.45;;;8.10;;
61635;SDS011;59438;45.014;39.006;2023-01-23T08:14:31;20.20;;;8.82;;
61635;SDS011;59438;45.014;39.006;2023-01-23T08:16:58;23.73;;;9.25;;
61635;SDS011;59438;45.014;39.006;2023-01-23T08:19:24;22.88;;;8.73;;
61635;SDS011;59438;45.014;39.006;2023-01-23T08:21:51;19.63;;;9.30;;
61635;SDS011;59438;45.014;39.006;2023-01-23T08:24:20;21.63;;;8.63;;
61635;SDS011;59438;45.014;39.006;2023-01-23T08:26:46;24.92;;;9.18;;
61635;SDS011;59438;45.014;39.006;2023-01-23T08:29:12;24.00;;;9.15;;
61635;SDS011;59438;45.014;39.006;2023-01-23T08:31:39;19.90;;;8.63;;
61635;SDS011;59438;45.014;39.006;2023-01-23T08:34:05;25.38;;;9.68;;
61635;SDS011;59438;45.014;39.006;2023-01-23T08:36:31;18.48;;;8.95;;
61635;SDS011;59438;45.014;39.006;2023-01-23T08:38:58;22.65;;;8.98;;
61635;SDS011;59438;45.014;39.006;2023-01-23T08:41:26;27.80;;;8.68;;
61635;SDS011;59438;45.014;39.006;2023-01-23T08:43:52;21.40;;;9.43;;
61635;SDS011;59438;45.014;39.006;2023-01-23T08:46:18;18.38;;;8.10;;
61635;SDS011;59438;45.014;39.006;2023-01-23T08:48:45;26.60;;;9.13;;
61635;SDS011;59438;45.014;39.006;2023-01-23T08:51:13;22.48;;;9.40;;
61635;SDS011;59438;45.014;39.006;2023-01-23T08:53:40;18.73;;;8.07;;
61635;SDS011;59438;45.014;39.006;2023-01-23T08:56:09;19.35;;;8.10;;
61635;SDS011;59438;45.014;39.006;2023-01-23T08:58:41;23.30;;;9.15;;
61635;SDS011;59438;45.014;39.006;2023-01-23T09:01:09;22.23;;;9.57;;
61635;SDS011;59438;45.014;39.006;2023-01-23T09:03:36;22.80;;;8.52;;
61635;SDS011;59438;45.014;39.006;2023-01-23T09:06:03;27.85;;;13.23;;
61635;SDS011;59438;45.014;39.006;2023-01-23T09:08:29;19.60;;;9.07;;
61635;SDS011;59438;45.014;39.006;2023-01-23T09:10:58;40.30;;;19.48;;
61635;SDS011;59438;45.014;39.006;2023-01-23T09:13:25;27.15;;;12.27;;
61635;SDS011;59438;45.014;39.006;2023-01-23T09:15:53;29.00;;;12.20;;
61635;SDS011;59438;45.014;39.006;2023-01-23T09:18:19;29.13;;;10.02;;
61635;SDS011;59438;45.014;39.006;2023-01-23T09:20:45;21.38;;;10.20;;
61635;SDS011;59438;45.014;39.006;2023-01-23T09:23:12;23.85;;;9.35;;
61635;SDS011;59438;45.014;39.006;2023-01-23T09:25:38;20.75;;;9.70;;
61635;SDS011;59438;45.014;39.006;2023-01-23T09:28:05;22.83;;;10.38;;
61635;SDS011;59438;45.014;39.006;2023-01-23T09:30:31;23.52;;;10.43;;
61635;SDS011;59438;45.014;39.006;2023-01-23T09:32:59;30.67;;;11.70;;
61635;SDS011;59438;45.014;39.006;2023-01-23T09:35:26;29.73;;;15.77;;
61635;SDS011;59438;45.014;39.006;2023-01-23T09:37:52;19.30;;;9.23;;
61635;SDS011;59438;45.014;39.006;2023-01-23T09:40:20;21.58;;;9.48;;
61635;SDS011;59438;45.014;39.006;2023-01-23T09:42:48;22.58;;;9.90;;
61635;SDS011;59438;45.014;39.006;2023-01-23T09:45:18;27.60;;;10.85;;
61635;SDS011;59438;45.014;39.006;2023-01-23T09:47:48;25.50;;;11.05;;
61635;SDS011;59438;45.014;39.006;2023-01-23T09:50:22;24.00;;;9.77;;
61635;SDS011;59438;45.014;39.006;2023-01-23T09:55:21;24.65;;;8.45;;
61635;SDS011;59438;45.014;39.006;2023-01-23T09:57:59;25.17;;;9.30;;
61635;SDS011;59438;45.014;39.006;2023-01-23T10:00:28;22.42;;;8.95;;
61635;SDS011;59438;45.014;39.006;2023-01-23T10:02:55;19.48;;;8.70;;
61635;SDS011;59438;45.014;39.006;2023-01-23T10:05:24;20.83;;;8.77;;
61635;SDS011;59438;45.014;39.006;2023-01-23T10:07:59;56.40;;;23.55;;
61635;SDS011;59438;45.014;39.006;2023-01-23T10:10:52;42.28;;;17.88;;
61635;SDS011;59438;45.014;39.006;2023-01-23T10:13:27;20.73;;;9.45;;
61635;SDS011;59438;45.014;39.006;2023-01-23T10:16:05;25.75;;;9.35;;
61635;SDS011;59438;45.014;39.006;2023-01-23T10:18:49;26.25;;;11.77;;
61635;SDS011;59438;45.014;39.006;2023-01-23T10:21:27;20.30;;;8.73;;
61635;SDS011;59438;45.014;39.006;2023-01-23T10:24:03;21.92;;;8.75;;
61635;SDS011;59438;45.014;39.006;2023-01-23T10:26:45;21.85;;;8.60;;
61635;SDS011;59438;45.014;39.006;2023-01-23T10:29:14;28.35;;;16.52;;
61635;SDS011;59438;45.014;39.006;2023-01-23T10:31:47;22.98;;;8.57;;
61635;SDS011;59438;45.014;39.006;2023-01-23T10:36:51;24.10;;;9.15;;
61635;SDS011;59438;45.014;39.006;2023-01-23T10:39:28;21.52;;;7.90;;
61635;SDS011;59438;45.014;39.006;2023-01-23T10:42:06;22.88;;;8.48;;
61635;SDS011;59438;45.014;39.006;2023-01-23T10:44:35;21.05;;;8.88;;
61635;SDS011;59438;45.014;39.006;2023-01-23T10:47:02;20.52;;;9.23;;
61635;SDS011;59438;45.014;39.006;2023-01-23T10:49:42;22.23;;;9.45;;
61635;SDS011;59438;45.014;39.006;2023-01-23T10:52:23;27.40;;;9.30;;
61635;SDS011;59438;45.014;39.006;2023-01-23T10:54:54;19.60;;;8.30;;
61635;SDS011;59438;45.014;39.006;2023-01-23T10:57:22;25.95;;;10.55;;
61635;SDS011;59438;45.014;39.006;2023-01-23T10:59:51;28.45;;;9.77;;
61635;SDS011;59438;45.014;39.006;2023-01-23T11:02:21;34.72;;;10.65;;
61635;SDS011;59438;45.014;39.006;2023-01-23T11:04:52;26.35;;;10.73;;
61635;SDS011;59438;45.014;39.006;2023-01-23T11:07:21;22.30;;;9.43;;
61635;SDS011;59438;45.014;39.006;2023-01-23T11:09:50;25.90;;;11.20;;
61635;SDS011;59438;45.014;39.006;2023-01-23T11:12:19;26.85;;;12.27;;
61635;SDS011;59438;45.014;39.006;2023-01-23T11:14:47;26.95;;;11.05;;
61635;SDS011;59438;45.014;39.006;2023-01-23T11:17:15;25.92;;;11.00;;
61635;SDS011;59438;45.014;39.006;2023-01-23T11:19:44;34.38;;;14.63;;
61635;SDS011;59438;45.014;39.006;2023-01-23T11:22:30;28.13;;;13.20;;
61635;SDS011;59438;45.014;39.006;2023-01-23T11:24:58;141.15;;;49.58;;
61635;SDS011;59438;45.014;39.006;2023-01-23T11:27:25;31.40;;;15.13;;
61635;SDS011;59438;45.014;39.006;2023-01-23T11:29:54;77.80;;;35.47;;
61635;SDS011;59438;45.014;39.006;2023-01-23T11:32:30;48.95;;;22.85;;
61635;SDS011;59438;45.014;39.006;2023-01-23T11:35:05;34.88;;;15.70;;
61635;SDS011;59438;45.014;39.006;2023-01-23T11:37:39;29.15;;;14.27;;
61635;SDS011;59438;45.014;39.006;2023-01-23T11:40:07;21.10;;;9.45;;
61635;SDS011;59438;45.014;39.006;2023-01-23T11:45:07;29.27;;;11.00;;
61635;SDS011;59438;45.014;39.006;2023-01-23T11:47:51;32.28;;;12.90;;
61635;SDS011;59438;45.014;39.006;2023-01-23T11:50:34;29.13;;;13.00;;
61635;SDS011;59438;45.014;39.006;2023-01-23T11:53:08;35.70;;;16.30;;
61635;SDS011;59438;45.014;39.006;2023-01-23T11:55:49;38.00;;;15.82;;
61635;SDS011;59438;45.014;39.006;2023-01-23T12:04:18;40.70;;;16.50;;
61635;SDS011;59438;45.014;39.006;2023-01-23T12:07:11;37.55;;;15.20;;
61635;SDS011;59438;45.014;39.006;2023-01-23T12:09:47;35.08;;;15.23;;
61635;SDS011;59438;45.014;39.006;2023-01-23T12:12:25;35.53;;;16.00;;
61635;SDS011;59438;45.014;39.006;2023-01-23T12:15:07;37.05;;;16.15;;
61635;SDS011;59438;45.014;39.006;2023-01-23T12:17:43;41.85;;;15.40;;
61635;SDS011;59438;45.014;39.006;2023-01-23T12:20:23;48.10;;;21.73;;
61635;SDS011;59438;45.014;39.006;2023-01-23T12:22:56;45.17;;;17.95;;
61635;SDS011;59438;45.014;39.006;2023-01-23T12:25:33;38.25;;;17.90;;
61635;SDS011;59438;45.014;39.006;2023-01-23T12:28:04;37.78;;;15.77;;
61635;SDS011;59438;45.014;39.006;2023-01-23T12:30:48;40.55;;;16.63;;
61635;SDS011;59438;45.014;39.006;2023-01-23T12:33:33;39.83;;;16.23;;
61635;SDS011;59438;45.014;39.006;2023-01-23T12:36:27;45.00;;;17.92;;
61635;SDS011;59438;45.014;39.006;2023-01-23T12:39:20;40.17;;;15.63;;
61635;SDS011;59438;45.014;39.006;2023-01-23T12:42:06;42.88;;;15.80;;
61635;SDS011;59438;45.014;39.006;2023-01-23T12:44:40;36.53;;;16.13;;
61635;SDS011;59438;45.014;39.006;2023-01-23T12:47:11;53.22;;;25.20;;
61635;SDS011;59438;45.014;39.006;2023-01-23T12:49:42;62.80;;;32.03;;
61635;SDS011;59438;45.014;39.006;2023-01-23T12:52:15;37.15;;;16.27;;
61635;SDS011;59438;45.014;39.006;2023-01-23T12:54:48;33.50;;;14.40;;
61635;SDS011;59438;45.014;39.006;2023-01-23T12:57:20;39.17;;;17.23;;
61635;SDS011;59438;45.014;39.006;2023-01-23T12:59:53;54.65;;;21.65;;
61635;SDS011;59438;45.014;39.006;2023-01-23T13:02:27;41.85;;;17.63;;
61635;SDS011;59438;45.014;39.006;2023-01-23T13:05:04;38.58;;;16.52;;
61635;SDS011;59438;45.014;39.006;2023-01-23T13:07:40;38.75;;;16.38;;
61635;SDS011;59438;45.014;39.006;2023-01-23T13:13:22;45.00;;;18.45;;
61635;SDS011;59438;45.014;39.006;2023-01-23T13:16:01;40.97;;;14.68;;
61635;SDS011;59438;45.014;39.006;2023-01-23T13:18:34;33.38;;;13.98;;
61635;SDS011;59438;45.014;39.006;2023-01-23T13:21:01;37.20;;;16.08;;
61635;SDS011;59438;45.014;39.006;2023-01-23T13:23:29;40.65;;;19.90;;
61635;SDS011;59438;45.014;39.006;2023-01-23T13:28:59;33.80;;;14.02;;
61635;SDS011;59438;45.014;39.006;2023-01-23T13:31:38;44.58;;;19.02;;
61635;SDS011;59438;45.014;39.006;2023-01-23T13:40:12;34.63;;;15.10;;
61635;SDS011;59438;45.014;39.006;2023-01-23T13:42:40;34.95;;;14.80;;
61635;SDS011;59438;45.014;39.006;2023-01-23T13:45:15;34.20;;;14.95;;
61635;SDS011;59438;45.014;39.006;2023-01-23T13:53:23;46.83;;;18.65;;
61635;SDS011;59438;45.014;39.006;2023-01-23T13:55:50;41.33;;;17.17;;
61635;SDS011;59438;45.014;39.006;2023-01-23T13:58:19;63.67;;;19.08;;
61635;SDS011;59438;45.014;39.006;2023-01-23T14:00:49;50.97;;;20.42;;
61635;SDS011;59438;45.014;39.006;2023-01-23T14:03:24;44.53;;;17.67;;
61635;SDS011;59438;45.014;39.006;2023-01-23T14:06:01;37.03;;;17.25;;
61635;SDS011;59438;45.014;39.006;2023-01-23T14:08:28;40.35;;;17.52;;
61635;SDS011;59438;45.014;39.006;2023-01-23T14:10:55;37.97;;;17.15;;
61635;SDS011;59438;45.014;39.006;2023-01-23T14:13:21;41.40;;;17.17;;
61635;SDS011;59438;45.014;39.006;2023-01-23T14:15:49;45.55;;;17.83;;
61635;SDS011;59438;45.014;39.006;2023-01-23T14:18:21;44.13;;;19.15;;
61635;SDS011;59438;45.014;39.006;2023-01-23T14:20:59;52.38;;;21.92;;
61635;SDS011;59438;45.014;39.006;2023-01-23T14:23:28;46.15;;;18.65;;
61635;SDS011;59438;45.014;39.006;2023-01-23T14:25:59;52.10;;;17.80;;
61635;SDS011;59438;45.014;39.006;2023-01-23T14:28:26;43.72;;;20.10;;
61635;SDS011;59438;45.014;39.006;2023-01-23T14:30:55;45.85;;;20.70;;
61635;SDS011;59438;45.014;39.006;2023-01-23T14:33:24;51.03;;;22.77;;
61635;SDS011;59438;45.014;39.006;2023-01-23T14:35:51;54.17;;;24.33;;
61635;SDS011;59438;45.014;39.006;2023-01-23T14:38:21;48.58;;;22.73;;
61635;SDS011;59438;45.014;39.006;2023-01-23T14:40:52;51.72;;;21.58;;
61635;SDS011;59438;45.014;39.006;2023-01-23T14:43:19;61.08;;;28.05;;
61635;SDS011;59438;45.014;39.006;2023-01-23T14:45:48;66.28;;;32.78;;
61635;SDS011;59438;45.014;39.006;2023-01-23T14:48:22;49.72;;;23.83;;
61635;SDS011;59438;45.014;39.006;2023-01-23T14:50:49;45.80;;;20.13;;
61635;SDS011;59438;45.014;39.006;2023-01-23T14:53:27;45.50;;;19.15;;
61635;SDS011;59438;45.014;39.006;2023-01-23T14:55:53;44.78;;;19.85;;
61635;SDS011;59438;45.014;39.006;2023-01-23T14:58:22;48.03;;;19.63;;
61635;SDS011;59438;45.014;39.006;2023-01-23T15:00:49;48.30;;;20.02;;
61635;SDS011;59438;45.014;39.006;2023-01-23T15:06:07;48.67;;;20.58;;